Briefing drone pour Lalinde

Rechercher une autre localisation

Conditions de vol :


Nous sommes le : Vendredi 07 mai 2021
Il est 01:43 UTC (03:43 LT)

Lever de soleil : 04:11 UTC (06:11 LT)
Coucher de soleil : 19:35 UTC (21:35 LT)

Météo

L'essentiel des conditions de vol

VIGILANCE MÉTÉO FRANCE - Dordogne (24)
Pas de vigilances particulieres
CARTE TEMSI
CARTES DES FRONTS
METAR de LFBE
LFBE 070130Z AUTO 25003KT 220V280 9999 OVC014 11/11 Q1016 TEMPO 4000 RADZ OVC005

Date d'émission: 07/05/2021
Heure d'émission: 01:30 UTC
Vent: 250° (variable du 220° au 280°) pour 3 KT (6 km/h)
Visibilité horizontale: > 10 km
Plafond :
- Couvert à 1400ft (427m)
Température: 11 °C
Point de rosée: 11 °C
Humidité: 100%
Pression (QNH): 1016 hPa

Temporairement:

Visibilité horizontale : 4000 m
Plafond :
- Couvert à 500ft (152m)
Conditions : Bruine
TAF de LFBE
AMD LFBE 062000Z 0620/0712 CNL

Conditions prévues :

Heure d'émission : Bulletin éffectué le 06 à 20:00 UTC
Prévision : Valide du 06 a 20:00 UTC au 07 a 12:00 UTC
Nuages : à 0ft (0 m)
WEBCAM POUR LALINDE

Réglementation

Voler en sécurité

CARTES AERONAUTIQUE 1/500.000
CARTES VAC (LFBE)
SUP AIP




Chargement des AIP...
NOTAM (LALINDE + Terrain à proximité / FIR )




Chargement des NOTAMS...
CONTACT PREFECTURE 24


Avertissement : Les données mises à disposition sont indicatives. Oxygène Drone ne pourra être tenu responsable de dégâts causés aux biens et aux personnes.